createdAt,value
2019-04-10T00:00:10.839Z,88.10
2019-04-10T00:02:39.758Z,88.30
2019-04-10T00:05:09.661Z,88.10
2019-04-10T00:07:38.234Z,88.00
2019-04-10T00:10:07.742Z,88.00
2019-04-10T00:12:36.357Z,88.30
2019-04-10T00:15:05.547Z,88.60
2019-04-10T00:17:34.084Z,88.70
2019-04-10T00:20:04.333Z,89.00
2019-04-10T00:22:33.978Z,89.00
2019-04-10T00:25:02.636Z,89.10
2019-04-10T00:27:31.210Z,88.90
2019-04-10T00:30:00.575Z,88.90
2019-04-10T00:32:29.964Z,89.10
2019-04-10T00:34:58.680Z,89.10
2019-04-10T00:37:29.965Z,88.80
2019-04-10T00:39:57.309Z,88.80
2019-04-10T00:42:26.111Z,89.00
2019-04-10T00:44:55.037Z,89.40
2019-04-10T00:47:23.576Z,89.60
2019-04-10T00:49:52.149Z,89.70
2019-04-10T00:52:20.611Z,90.00
2019-04-10T00:54:49.063Z,90.00
2019-04-10T00:57:17.566Z,90.00
2019-04-10T00:59:46.024Z,90.10
2019-04-10T01:02:14.487Z,90.10
2019-04-10T01:04:42.984Z,90.20
2019-04-10T01:07:11.451Z,90.40
2019-04-10T01:09:39.992Z,90.40
2019-04-10T01:12:08.562Z,90.50
2019-04-10T01:14:37.976Z,90.60
2019-04-10T01:17:06.696Z,90.60
2019-04-10T01:19:36.279Z,90.60
2019-04-10T01:22:05.234Z,90.70
2019-04-10T01:24:33.696Z,90.50
2019-04-10T01:27:03.370Z,90.50
2019-04-10T01:29:31.940Z,90.70
2019-04-10T01:32:01.387Z,90.70
2019-04-10T01:34:30.180Z,90.60
2019-04-10T01:36:58.635Z,90.60
2019-04-10T01:39:28.733Z,90.50
2019-04-10T01:41:57.230Z,90.50
2019-04-10T01:44:26.811Z,90.80
2019-04-10T01:46:55.437Z,90.70
2019-04-10T01:49:24.047Z,90.70
2019-04-10T01:51:52.508Z,90.50
2019-04-10T01:54:20.987Z,90.80
2019-04-10T01:56:50.159Z,90.80
2019-04-10T01:59:21.435Z,90.80
2019-04-10T02:02:00.986Z,90.90
2019-04-10T02:04:28.971Z,91.10
2019-04-10T02:06:57.954Z,91.50
2019-04-10T02:09:27.626Z,91.70
2019-04-10T02:11:56.458Z,91.80
2019-04-10T02:14:24.997Z,91.70
2019-04-10T02:16:53.568Z,91.80
2019-04-10T02:19:22.104Z,91.80
2019-04-10T02:21:50.560Z,91.70
2019-04-10T02:24:19.312Z,91.90
2019-04-10T02:26:47.776Z,92.00
2019-04-10T02:29:16.236Z,91.90
2019-04-10T02:31:46.208Z,92.00
2019-04-10T02:34:14.966Z,92.00
2019-04-10T02:36:44.522Z,91.70
2019-04-10T02:39:23.956Z,91.80
2019-04-10T02:41:43.976Z,91.60
2019-04-10T02:44:12.850Z,91.60
2019-04-10T02:46:41.798Z,91.50
2019-04-10T02:49:12.113Z,91.40
2019-04-10T02:51:41.287Z,91.50
2019-04-10T02:54:11.231Z,91.40
2019-04-10T02:56:40.995Z,91.40
2019-04-10T02:59:11.077Z,91.40
2019-04-10T03:01:40.024Z,91.30
2019-04-10T03:04:09.790Z,91.40
2019-04-10T03:06:39.567Z,91.40
2019-04-10T03:09:26.151Z,91.40
2019-04-10T03:11:39.158Z,91.50
2019-04-10T03:14:08.148Z,91.40
2019-04-10T03:16:37.600Z,91.10
2019-04-10T03:19:07.394Z,91.10
2019-04-10T03:21:36.101Z,90.70
2019-04-10T03:24:04.728Z,90.70
2019-04-10T03:26:33.991Z,90.80
2019-04-10T03:29:03.252Z,90.80
2019-04-10T03:31:34.172Z,90.70
2019-04-10T03:34:06.090Z,90.50
2019-04-10T03:36:38.648Z,90.50
2019-04-10T03:39:09.329Z,90.90
2019-04-10T03:41:40.018Z,90.70
2019-04-10T03:44:08.766Z,90.70
2019-04-10T03:46:39.949Z,91.10
2019-04-10T03:49:07.526Z,91.30
2019-04-10T03:51:36.633Z,90.80
2019-04-10T03:54:05.246Z,90.70
2019-04-10T03:56:34.025Z,90.60
2019-04-10T03:59:02.657Z,90.50
2019-04-10T04:01:32.021Z,90.80
2019-04-10T04:04:01.467Z,90.90
2019-04-10T04:06:30.119Z,90.90
2019-04-10T04:09:06.693Z,90.70
2019-04-10T04:11:29.398Z,90.70
2019-04-10T04:13:57.996Z,90.80
2019-04-10T04:16:26.881Z,90.60
2019-04-10T04:18:55.584Z,90.50
2019-04-10T04:21:25.841Z,90.80
2019-04-10T04:23:55.232Z,90.60
2019-04-10T04:26:23.812Z,90.40
2019-04-10T04:28:52.547Z,90.30
2019-04-10T04:31:22.897Z,90.30
2019-04-10T04:33:51.519Z,90.50
2019-04-10T04:36:20.432Z,90.50
2019-04-10T04:38:49.228Z,90.50
2019-04-10T04:41:17.744Z,90.20
2019-04-10T04:43:47.604Z,90.20
2019-04-10T04:46:16.499Z,90.10
2019-04-10T04:48:45.368Z,89.80
2019-04-10T04:51:14.004Z,89.80
2019-04-10T04:53:42.640Z,89.10
2019-04-10T04:56:11.491Z,88.60
2019-04-10T04:58:40.123Z,88.40
2019-04-10T05:01:08.647Z,88.50
2019-04-10T05:03:37.552Z,88.30
2019-04-10T05:06:06.191Z,87.70
2019-04-10T05:08:34.725Z,87.70
2019-04-10T05:11:04.224Z,87.70
2019-04-10T05:13:32.737Z,87.50
2019-04-10T05:16:02.554Z,86.90
2019-04-10T05:18:31.737Z,86.30
2019-04-10T05:21:00.942Z,85.70
2019-04-10T05:23:29.473Z,85.10
2019-04-10T05:25:59.031Z,84.70
2019-04-10T05:28:28.500Z,84.30
2019-04-10T05:30:58.936Z,84.30
2019-04-10T05:33:26.853Z,85.00
2019-04-10T05:35:55.387Z,83.70
2019-04-10T05:38:24.898Z,83.30
2019-04-10T05:40:53.588Z,82.50
2019-04-10T05:43:22.117Z,81.90
2019-04-10T05:45:50.709Z,81.80
2019-04-10T05:48:21.898Z,82.50
2019-04-10T05:50:57.921Z,81.80
2019-04-10T05:53:20.400Z,82.20
2019-04-10T05:55:49.352Z,81.40
2019-04-10T05:58:18.005Z,81.50
2019-04-10T06:00:47.133Z,80.00
2019-04-10T06:03:16.512Z,80.60
2019-04-10T06:05:45.069Z,80.20
2019-04-10T06:08:14.001Z,80.00
2019-04-10T06:10:43.575Z,79.60
2019-04-10T06:13:11.543Z,78.30
2019-04-10T06:15:41.212Z,77.90
2019-04-10T06:18:11.091Z,78.10
2019-04-10T06:20:41.669Z,78.70
2019-04-10T06:23:11.460Z,78.00
2019-04-10T06:25:41.928Z,78.40
2019-04-10T06:28:10.302Z,78.20
2019-04-10T06:30:39.799Z,77.90
2019-04-10T06:33:09.599Z,77.00
2019-04-10T06:35:38.356Z,76.20
2019-04-10T06:38:06.963Z,76.20
2019-04-10T06:40:35.607Z,74.80
2019-04-10T06:43:04.447Z,75.10
2019-04-10T06:45:35.732Z,74.60
2019-04-10T06:48:04.392Z,75.70
2019-04-10T06:50:32.945Z,75.90
2019-04-10T06:53:01.529Z,76.10
2019-04-10T06:55:30.279Z,75.60
2019-04-10T06:57:59.390Z,74.80
2019-04-10T07:00:28.633Z,74.70
2019-04-10T07:02:57.281Z,73.80
2019-04-10T07:05:37.103Z,73.00
2019-04-10T07:08:05.729Z,73.10
2019-04-10T07:10:32.260Z,73.30
2019-04-10T07:12:57.121Z,73.80
2019-04-10T07:15:25.681Z,72.80
2019-04-10T07:17:55.370Z,71.10
2019-04-10T07:20:24.114Z,71.30
2019-04-10T07:22:53.341Z,70.50
2019-04-10T07:25:21.935Z,69.10
2019-04-10T07:27:50.497Z,69.10
2019-04-10T07:30:19.539Z,70.00
2019-04-10T07:32:49.178Z,69.80
2019-04-10T07:35:21.464Z,68.80
2019-04-10T07:37:52.598Z,69.70
2019-04-10T07:40:18.694Z,67.00
2019-04-10T07:42:48.278Z,67.80
2019-04-10T07:45:17.468Z,67.60
2019-04-10T07:47:46.235Z,67.00
2019-04-10T07:50:16.382Z,66.80
2019-04-10T07:52:45.909Z,66.40
2019-04-10T07:55:14.962Z,66.30
2019-04-10T07:57:47.154Z,65.50
2019-04-10T08:00:16.705Z,65.00
2019-04-10T08:02:45.213Z,63.60
2019-04-10T08:05:14.455Z,63.60
2019-04-10T08:07:43.133Z,63.70
2019-04-10T08:10:12.083Z,62.90
2019-04-10T08:12:47.680Z,61.40
2019-04-10T08:15:11.295Z,61.10
2019-04-10T08:17:40.974Z,61.60
2019-04-10T08:22:44.873Z,61.30
2019-04-10T08:25:14.272Z,59.90
2019-04-10T08:27:43.795Z,60.30
2019-04-10T08:30:12.901Z,58.70
2019-04-10T08:32:53.397Z,57.30
2019-04-10T08:35:11.793Z,56.10
2019-04-10T08:37:41.106Z,57.00
2019-04-10T08:40:10.029Z,56.70
2019-04-10T08:42:40.162Z,56.50
2019-04-10T08:45:09.326Z,55.00
2019-04-10T08:47:37.908Z,56.10
2019-04-10T08:50:07.921Z,54.80
2019-04-10T08:52:37.051Z,53.80
2019-04-10T08:55:06.275Z,52.90
2019-04-10T08:57:36.113Z,53.20
2019-04-10T09:00:10.188Z,55.00
2019-04-10T09:02:39.037Z,54.50
2019-04-10T09:05:09.180Z,53.60
2019-04-10T09:07:38.218Z,53.50
2019-04-10T09:10:08.177Z,51.90
2019-04-10T09:12:36.858Z,51.40
2019-04-10T09:15:07.663Z,50.50
2019-04-10T09:17:37.523Z,51.40
2019-04-10T09:20:07.365Z,52.80
2019-04-10T09:22:56.300Z,50.80
2019-04-10T09:25:07.638Z,50.60
2019-04-10T09:27:36.273Z,50.60
2019-04-10T09:30:06.825Z,51.90
2019-04-10T09:32:35.435Z,51.10
2019-04-10T09:35:06.517Z,52.00
2019-04-10T09:37:35.269Z,51.70
2019-04-10T09:40:07.813Z,51.40
2019-04-10T09:42:36.515Z,52.40
2019-04-10T09:45:06.034Z,52.70
2019-04-10T09:47:34.766Z,50.70
2019-04-10T09:50:05.682Z,50.10
2019-04-10T09:52:35.493Z,50.10
2019-04-10T09:55:05.695Z,51.10
2019-04-10T09:57:34.625Z,49.50
2019-04-10T10:00:05.314Z,48.70
2019-04-10T10:02:33.899Z,48.80
2019-04-10T10:05:02.379Z,48.30
2019-04-10T10:07:30.973Z,47.70
2019-04-10T10:10:00.879Z,47.80
2019-04-10T10:12:29.637Z,47.40
2019-04-10T10:14:58.210Z,47.40
2019-04-10T10:17:26.679Z,49.00
2019-04-10T10:19:55.410Z,49.50
2019-04-10T10:22:25.185Z,48.40
2019-04-10T10:24:55.075Z,49.00
2019-04-10T10:27:24.699Z,49.70
2019-04-10T10:29:54.897Z,51.40
2019-04-10T10:32:24.626Z,51.50
2019-04-10T10:34:54.489Z,51.50
2019-04-10T10:37:24.113Z,51.60
2019-04-10T10:39:52.818Z,52.50
2019-04-10T10:42:21.743Z,52.30
2019-04-10T10:44:50.240Z,52.10
2019-04-10T10:47:18.705Z,52.60
2019-04-10T10:49:47.280Z,52.60
2019-04-10T10:52:15.852Z,53.50
2019-04-10T10:54:45.201Z,54.90
2019-04-10T10:57:13.875Z,55.70
2019-04-10T10:59:42.530Z,55.00
2019-04-10T11:02:11.253Z,54.40
2019-04-10T11:04:39.902Z,53.60
2019-04-10T11:07:08.686Z,54.60
2019-04-10T11:09:38.161Z,54.10
2019-04-10T11:12:06.867Z,53.90
2019-04-10T11:14:35.528Z,53.30
2019-04-10T11:17:05.303Z,53.20
2019-04-10T11:19:35.387Z,52.70
2019-04-10T11:22:07.395Z,52.40
2019-04-10T11:24:38.140Z,52.30
2019-04-10T11:27:07.956Z,52.60
2019-04-10T11:29:37.651Z,54.10
2019-04-10T11:32:06.774Z,54.20
2019-04-10T11:34:35.678Z,54.60
2019-04-10T11:37:21.550Z,53.20
2019-04-10T11:39:37.254Z,52.80
2019-04-10T11:42:06.563Z,52.60
2019-04-10T11:44:36.782Z,53.70
2019-04-10T11:47:08.735Z,53.40
2019-04-10T11:49:39.237Z,52.90
2019-04-10T11:52:06.561Z,52.40
2019-04-10T11:54:40.364Z,51.40
2019-04-10T11:57:06.833Z,51.50
2019-04-10T11:59:36.655Z,49.70
2019-04-10T12:02:08.194Z,48.60
2019-04-10T12:04:48.122Z,48.70
2019-04-10T12:07:09.131Z,49.10
2019-04-10T12:12:07.025Z,48.10
2019-04-10T12:14:35.683Z,47.90
2019-04-10T12:17:05.437Z,47.90
2019-04-10T12:19:33.963Z,48.50
2019-04-10T12:22:03.175Z,49.30
2019-04-10T12:24:32.232Z,50.00
2019-04-10T12:27:00.920Z,50.40
2019-04-10T12:29:29.497Z,50.20
2019-04-10T12:31:58.567Z,50.20
2019-04-10T12:34:27.172Z,50.70
2019-04-10T12:36:55.754Z,52.60
2019-04-10T12:39:25.269Z,52.60
2019-04-10T12:41:53.985Z,52.30
2019-04-10T12:44:23.358Z,52.30
2019-04-10T12:46:53.260Z,52.10
2019-04-10T12:49:21.898Z,52.00
2019-04-10T12:51:50.469Z,51.50
2019-04-10T12:54:19.568Z,51.70
2019-04-10T12:56:48.575Z,52.90
2019-04-10T12:59:17.386Z,53.30
2019-04-10T13:01:47.025Z,53.70
2019-04-10T13:04:15.800Z,51.90
2019-04-10T13:06:44.520Z,52.00
2019-04-10T13:09:14.435Z,52.40
2019-04-10T13:11:43.134Z,51.90
2019-04-10T13:14:12.583Z,52.00
2019-04-10T13:16:41.369Z,51.20
2019-04-10T13:19:11.166Z,50.90
2019-04-10T13:21:40.041Z,51.40
2019-04-10T13:24:09.098Z,52.50
2019-04-10T13:26:37.879Z,52.50
2019-04-10T13:29:07.699Z,53.00
2019-04-10T13:31:37.275Z,52.60
2019-04-10T13:34:33.246Z,52.90
2019-04-10T13:37:02.090Z,52.80
2019-04-10T13:39:30.836Z,53.50
2019-04-10T13:41:59.536Z,53.50
2019-04-10T13:44:28.774Z,53.00
2019-04-10T13:46:57.457Z,54.30
2019-04-10T13:49:26.289Z,53.80
2019-04-10T13:51:54.757Z,53.80
2019-04-10T13:54:23.221Z,53.80
2019-04-10T13:56:52.838Z,54.10
2019-04-10T13:59:22.487Z,53.90
2019-04-10T14:01:50.516Z,53.50
2019-04-10T14:04:19.171Z,53.70
2019-04-10T14:06:49.276Z,53.80
2019-04-10T14:09:30.126Z,53.80
2019-04-10T14:11:49.564Z,54.10
2019-04-10T14:14:18.314Z,54.60
2019-04-10T14:16:46.908Z,55.30
2019-04-10T14:19:15.503Z,55.50
2019-04-10T14:21:45.027Z,55.80
2019-04-10T14:24:12.975Z,56.00
2019-04-10T14:26:48.836Z,56.00
2019-04-10T14:29:14.547Z,55.10
2019-04-10T14:31:44.717Z,55.80
2019-04-10T14:34:14.427Z,56.50
2019-04-10T14:36:44.260Z,56.00
2019-04-10T14:39:18.477Z,57.10
2019-04-10T14:41:44.739Z,56.60
2019-04-10T14:44:14.512Z,56.40
2019-04-10T14:46:44.269Z,56.00
2019-04-10T14:49:13.186Z,56.40
2019-04-10T14:51:41.957Z,57.30
2019-04-10T14:54:11.313Z,57.30
2019-04-10T14:56:40.087Z,57.60
2019-04-10T14:59:09.514Z,57.60
2019-04-10T15:01:41.976Z,57.40
2019-04-10T15:05:05.815Z,59.00
2019-04-10T15:07:35.194Z,58.10
2019-04-10T15:10:05.576Z,58.80
2019-04-10T15:12:34.088Z,58.60
2019-04-10T15:15:03.846Z,57.90
2019-04-10T15:17:32.893Z,58.20
2019-04-10T15:20:01.740Z,59.20
2019-04-10T15:22:30.340Z,58.40
2019-04-10T15:24:59.321Z,58.70
2019-04-10T15:27:29.156Z,59.30
2019-04-10T15:29:59.213Z,59.40
2019-04-10T15:32:27.692Z,60.00
2019-04-10T15:34:56.209Z,59.30
2019-04-10T15:37:24.961Z,60.00
2019-04-10T15:39:53.920Z,60.00
2019-04-10T15:42:23.770Z,60.30
2019-04-10T15:44:52.525Z,60.20
2019-04-10T15:47:23.113Z,60.00
2019-04-10T15:49:51.612Z,60.00
2019-04-10T15:52:20.631Z,59.80
2019-04-10T15:54:50.304Z,60.40
2019-04-10T15:57:19.523Z,60.20
2019-04-10T15:59:48.363Z,60.20
2019-04-10T16:02:17.152Z,60.20
2019-04-10T16:04:45.739Z,60.80
2019-04-10T16:07:16.106Z,60.80
2019-04-10T16:09:51.679Z,61.10
2019-04-10T16:12:18.527Z,61.30
2019-04-10T16:14:47.170Z,61.90
2019-04-10T16:17:34.993Z,62.00
2019-04-10T16:20:09.288Z,61.60
2019-04-10T16:22:42.676Z,61.90
2019-04-10T16:25:14.452Z,62.30
2019-04-10T16:27:43.343Z,62.00
2019-04-10T16:30:14.442Z,62.50
2019-04-10T16:32:44.301Z,62.20
2019-04-10T16:35:13.893Z,62.20
2019-04-10T16:37:41.903Z,62.80
2019-04-10T16:40:11.646Z,62.70
2019-04-10T16:42:41.714Z,62.60
2019-04-10T16:45:10.735Z,62.80
2019-04-10T16:47:39.373Z,63.00
2019-04-10T16:50:09.166Z,62.70
2019-04-10T16:52:38.900Z,62.70
2019-04-10T16:55:08.594Z,63.00
2019-04-10T16:57:37.136Z,63.30
2019-04-10T17:00:07.027Z,63.10
2019-04-10T17:02:36.046Z,63.20
2019-04-10T17:05:08.103Z,63.50
2019-04-10T17:07:37.380Z,63.80
2019-04-10T17:10:17.655Z,63.50
2019-04-10T17:12:40.745Z,63.50
2019-04-10T17:15:10.290Z,63.90
2019-04-10T17:17:38.824Z,64.30
2019-04-10T17:20:08.559Z,64.60
2019-04-10T17:22:43.437Z,64.20
2019-04-10T17:25:07.839Z,64.30
2019-04-10T17:27:37.480Z,64.90
2019-04-10T17:30:08.102Z,65.60
2019-04-10T17:32:36.582Z,65.60
2019-04-10T17:35:07.862Z,65.90
2019-04-10T17:37:38.070Z,66.20
2019-04-10T17:40:08.902Z,65.60
2019-04-10T17:42:38.249Z,66.00
2019-04-10T17:45:08.161Z,66.00
2019-04-10T17:47:36.792Z,66.50
2019-04-10T17:50:07.756Z,66.40
2019-04-10T17:52:38.049Z,67.50
2019-04-10T17:55:07.793Z,66.90
2019-04-10T17:57:40.162Z,67.20
2019-04-10T18:00:11.135Z,67.40
2019-04-10T18:02:40.996Z,67.60
2019-04-10T18:05:10.604Z,67.10
2019-04-10T18:07:39.202Z,66.90
2019-04-10T18:10:08.539Z,66.30
2019-04-10T18:12:38.370Z,66.30
2019-04-10T18:15:08.164Z,66.00
2019-04-10T18:17:36.821Z,66.10
2019-04-10T18:20:06.390Z,66.10
2019-04-10T18:22:34.381Z,65.90
2019-04-10T18:25:03.499Z,66.20
2019-04-10T18:27:32.339Z,66.50
2019-04-10T18:30:00.919Z,66.40
2019-04-10T18:32:29.684Z,66.50
2019-04-10T18:34:58.388Z,65.90
2019-04-10T18:37:28.571Z,66.30
2019-04-10T18:39:57.110Z,66.20
2019-04-10T18:42:26.605Z,66.10
2019-04-10T18:44:55.439Z,66.20
2019-04-10T18:47:24.992Z,66.20
2019-04-10T18:49:54.000Z,66.30
2019-04-10T18:52:23.462Z,66.20
2019-04-10T18:54:52.146Z,66.30
2019-04-10T18:57:21.968Z,65.80
2019-04-10T19:00:10.135Z,66.10
2019-04-10T19:02:55.321Z,65.70
2019-04-10T19:05:28.128Z,65.80
2019-04-10T19:07:56.935Z,65.80
2019-04-10T19:10:26.405Z,66.10
2019-04-10T19:12:55.011Z,65.40
2019-04-10T19:15:24.426Z,66.10
2019-04-10T19:17:52.531Z,66.00
2019-04-10T19:20:21.203Z,66.00
2019-04-10T19:22:50.668Z,65.90
2019-04-10T19:25:18.806Z,66.10
2019-04-10T19:27:48.526Z,66.30
2019-04-10T19:30:39.363Z,65.80
2019-04-10T19:33:08.115Z,66.00
2019-04-10T19:35:37.273Z,65.60
2019-04-10T19:38:07.197Z,65.90
2019-04-10T19:40:38.334Z,65.90
2019-04-10T19:43:06.690Z,66.00
2019-04-10T19:45:36.238Z,66.10
2019-04-10T19:48:04.271Z,66.20
2019-04-10T19:50:33.084Z,66.30
2019-04-10T19:53:02.614Z,66.50
2019-04-10T19:55:31.655Z,66.60
2019-04-10T19:58:00.350Z,66.70
2019-04-10T20:00:34.679Z,66.30
2019-04-10T20:03:03.648Z,66.10
2019-04-10T20:05:32.355Z,66.40
2019-04-10T20:08:01.665Z,66.20
2019-04-10T20:10:30.333Z,66.60
2019-04-10T20:12:59.374Z,66.50
2019-04-10T20:15:28.815Z,66.60
2019-04-10T20:17:57.545Z,66.20
2019-04-10T20:20:27.048Z,66.10
2019-04-10T20:22:55.590Z,66.10
2019-04-10T20:25:24.350Z,65.70
2019-04-10T20:27:53.106Z,65.80
2019-04-10T20:30:23.698Z,66.20
2019-04-10T20:32:52.439Z,66.40
2019-04-10T20:35:22.323Z,66.40
2019-04-10T20:37:51.243Z,66.70
2019-04-10T20:40:20.750Z,66.50
2019-04-10T20:42:49.353Z,66.30
2019-04-10T20:45:18.007Z,66.50
2019-04-10T20:47:46.935Z,66.30
2019-04-10T20:50:15.640Z,66.30
2019-04-10T20:52:45.297Z,66.20
2019-04-10T20:55:14.220Z,66.20
2019-04-10T20:57:43.827Z,66.60
2019-04-10T21:00:13.631Z,66.70
2019-04-10T21:02:42.651Z,66.20
2019-04-10T21:05:14.855Z,66.20
2019-04-10T21:07:43.819Z,66.20
2019-04-10T21:10:12.826Z,66.30
2019-04-10T21:12:41.934Z,66.50
2019-04-10T21:15:11.206Z,66.40
2019-04-10T21:17:39.812Z,66.80
2019-04-10T21:20:08.276Z,66.90
2019-04-10T21:22:36.769Z,66.40
2019-04-10T21:25:08.320Z,66.20
2019-04-10T21:27:37.660Z,66.40
2019-04-10T21:30:14.229Z,66.30
2019-04-10T21:32:56.878Z,66.20
2019-04-10T21:35:33.390Z,67.00
2019-04-10T21:38:02.597Z,66.90
2019-04-10T21:40:31.351Z,66.80
2019-04-10T21:42:59.845Z,67.00
2019-04-10T21:45:28.501Z,66.70
2019-04-10T21:47:57.838Z,66.70
2019-04-10T21:50:26.972Z,66.50
2019-04-10T21:52:55.656Z,66.20
2019-04-10T21:55:24.183Z,66.50
2019-04-10T21:57:52.768Z,66.30
2019-04-10T22:00:26.268Z,66.50
2019-04-10T22:02:56.122Z,66.80
2019-04-10T22:05:25.005Z,66.80
2019-04-10T22:08:03.075Z,67.40
2019-04-10T22:10:34.218Z,68.10
2019-04-10T22:13:03.742Z,67.40
2019-04-10T22:15:42.511Z,67.30
2019-04-10T22:18:11.075Z,67.50
2019-04-10T22:20:39.645Z,67.70
2019-04-10T22:23:09.702Z,67.80
2019-04-10T22:25:39.437Z,67.40
2019-04-10T22:28:14.940Z,67.40
2019-04-10T22:30:43.791Z,69.30
2019-04-10T22:33:12.384Z,67.10
2019-04-10T22:35:42.017Z,67.20
2019-04-10T22:38:11.090Z,67.30
2019-04-10T22:40:40.111Z,67.50
2019-04-10T22:43:08.812Z,67.70
2019-04-10T22:45:38.101Z,67.70
2019-04-10T22:48:06.856Z,67.90
2019-04-10T22:50:36.385Z,67.30
2019-04-10T22:53:04.722Z,67.20
2019-04-10T22:55:33.827Z,67.60
2019-04-10T22:58:02.679Z,68.80
2019-04-10T23:00:32.682Z,69.80
2019-04-10T23:03:02.921Z,70.20
2019-04-10T23:05:32.313Z,70.80
2019-04-10T23:08:01.218Z,71.20
2019-04-10T23:10:30.110Z,71.10
2019-04-10T23:13:03.069Z,71.00
2019-04-10T23:15:29.268Z,71.10
2019-04-10T23:17:57.776Z,71.20
2019-04-10T23:20:26.381Z,71.40
2019-04-10T23:22:55.011Z,71.10
2019-04-10T23:25:24.627Z,71.00
2019-04-10T23:27:55.212Z,70.80
2019-04-10T23:30:22.817Z,70.90
2019-04-10T23:32:51.465Z,71.10
2019-04-10T23:35:21.180Z,71.40
2019-04-10T23:37:50.994Z,71.60
2019-04-10T23:40:20.878Z,71.60
2019-04-10T23:43:01.315Z,70.60
2019-04-10T23:45:19.918Z,70.20
2019-04-10T23:47:48.772Z,70.50
2019-04-10T23:50:18.460Z,70.70
2019-04-10T23:52:47.880Z,70.60
2019-04-10T23:55:17.671Z,70.80
2019-04-10T23:57:46.477Z,71.10
